sensor_id;sensor_type;location;lat;lon;timestamp;temperature;humidity
19397;DHT22;9834;48.076;11.878;2022-09-09T00:00:24;12.50;99.90
19397;DHT22;9834;48.076;11.878;2022-09-09T00:02:57;12.50;99.90
19397;DHT22;9834;48.076;11.878;2022-09-09T00:05:31;12.40;99.90
19397;DHT22;9834;48.076;11.878;2022-09-09T00:08:03;12.40;99.90
19397;DHT22;9834;48.076;11.878;2022-09-09T00:10:33;12.30;99.90
19397;DHT22;9834;48.076;11.878;2022-09-09T00:13:09;12.30;99.90
19397;DHT22;9834;48.076;11.878;2022-09-09T00:15:50;12.30;99.90
19397;DHT22;9834;48.076;11.878;2022-09-09T00:18:25;12.30;99.90
19397;DHT22;9834;48.076;11.878;2022-09-09T00:20:58;12.20;99.90
19397;DHT22;9834;48.076;11.878;2022-09-09T00:23:34;12.20;99.90
19397;DHT22;9834;48.076;11.878;2022-09-09T00:26:08;12.20;99.90
19397;DHT22;9834;48.076;11.878;2022-09-09T00:28:39;12.20;99.90
19397;DHT22;9834;48.076;11.878;2022-09-09T00:31:13;12.30;99.90
19397;DHT22;9834;48.076;11.878;2022-09-09T00:33:40;12.40;99.90
19397;DHT22;9834;48.076;11.878;2022-09-09T00:36:13;12.40;99.90
19397;DHT22;9834;48.076;11.878;2022-09-09T00:38:44;12.50;99.90
19397;DHT22;9834;48.076;11.878;2022-09-09T00:41:17;12.50;99.90
19397;DHT22;9834;48.076;11.878;2022-09-09T00:43:53;12.50;99.90
19397;DHT22;9834;48.076;11.878;2022-09-09T00:46:37;12.50;99.90
19397;DHT22;9834;48.076;11.878;2022-09-09T00:49:19;12.50;99.90
19397;DHT22;9834;48.076;11.878;2022-09-09T00:51:56;12.50;99.90
19397;DHT22;9834;48.076;11.878;2022-09-09T00:54:36;12.60;99.90
19397;DHT22;9834;48.076;11.878;2022-09-09T00:57:13;12.60;99.90
19397;DHT22;9834;48.076;11.878;2022-09-09T00:59:47;12.60;99.90
19397;DHT22;9834;48.076;11.878;2022-09-09T01:02:22;12.70;99.90
19397;DHT22;9834;48.076;11.878;2022-09-09T01:04:53;12.80;99.90
19397;DHT22;9834;48.076;11.878;2022-09-09T01:07:20;12.80;99.90
19397;DHT22;9834;48.076;11.878;2022-09-09T01:09:57;12.90;99.90
19397;DHT22;9834;48.076;11.878;2022-09-09T01:12:28;12.90;99.90
19397;DHT22;9834;48.076;11.878;2022-09-09T01:15:03;12.90;99.90
19397;DHT22;9834;48.076;11.878;2022-09-09T01:17:37;12.90;99.90
19397;DHT22;9834;48.076;11.878;2022-09-09T01:20:10;12.90;99.90
19397;DHT22;9834;48.076;11.878;2022-09-09T01:22:44;12.90;99.90
19397;DHT22;9834;48.076;11.878;2022-09-09T01:28:22;12.90;99.90
19397;DHT22;9834;48.076;11.878;2022-09-09T01:30:51;12.90;99.90
19397;DHT22;9834;48.076;11.878;2022-09-09T01:33:19;13.00;99.90
19397;DHT22;9834;48.076;11.878;2022-09-09T01:35:49;13.00;99.90
19397;DHT22;9834;48.076;11.878;2022-09-09T01:38:20;13.00;99.90
19397;DHT22;9834;48.076;11.878;2022-09-09T01:40:48;13.00;99.90
19397;DHT22;9834;48.076;11.878;2022-09-09T01:43:20;13.10;99.90
19397;DHT22;9834;48.076;11.878;2022-09-09T01:45:49;13.10;99.90
19397;DHT22;9834;48.076;11.878;2022-09-09T01:48:18;13.10;99.90
19397;DHT22;9834;48.076;11.878;2022-09-09T01:50:45;13.20;99.90
19397;DHT22;9834;48.076;11.878;2022-09-09T01:53:14;13.20;99.90
19397;DHT22;9834;48.076;11.878;2022-09-09T01:55:51;13.20;99.90
19397;DHT22;9834;48.076;11.878;2022-09-09T01:58:32;13.30;99.90
19397;DHT22;9834;48.076;11.878;2022-09-09T02:01:07;13.20;99.90
19397;DHT22;9834;48.076;11.878;2022-09-09T02:03:35;13.30;99.90
19397;DHT22;9834;48.076;11.878;2022-09-09T02:06:09;13.30;99.90
19397;DHT22;9834;48.076;11.878;2022-09-09T02:08:43;13.30;99.90
19397;DHT22;9834;48.076;11.878;2022-09-09T02:11:14;13.30;99.90
19397;DHT22;9834;48.076;11.878;2022-09-09T02:13:44;13.40;99.90
19397;DHT22;9834;48.076;11.878;2022-09-09T02:16:15;13.30;99.90
19397;DHT22;9834;48.076;11.878;2022-09-09T02:18:49;13.40;99.90
19397;DHT22;9834;48.076;11.878;2022-09-09T02:21:18;13.40;99.90
19397;DHT22;9834;48.076;11.878;2022-09-09T02:23:47;13.40;99.90
19397;DHT22;9834;48.076;11.878;2022-09-09T02:26:18;13.40;99.90
19397;DHT22;9834;48.076;11.878;2022-09-09T02:28:50;13.40;99.90
19397;DHT22;9834;48.076;11.878;2022-09-09T02:31:20;13.40;99.90
19397;DHT22;9834;48.076;11.878;2022-09-09T02:33:51;13.40;99.90
19397;DHT22;9834;48.076;11.878;2022-09-09T02:36:19;13.40;99.90
19397;DHT22;9834;48.076;11.878;2022-09-09T02:38:48;13.40;99.90
19397;DHT22;9834;48.076;11.878;2022-09-09T02:41:19;13.40;99.90
19397;DHT22;9834;48.076;11.878;2022-09-09T02:43:48;13.40;99.90
19397;DHT22;9834;48.076;11.878;2022-09-09T02:46:29;13.40;99.90
19397;DHT22;9834;48.076;11.878;2022-09-09T02:49:01;13.40;99.90
19397;DHT22;9834;48.076;11.878;2022-09-09T02:51:37;13.40;99.90
19397;DHT22;9834;48.076;11.878;2022-09-09T02:54:11;13.30;99.90
19397;DHT22;9834;48.076;11.878;2022-09-09T02:56:43;13.30;99.90
19397;DHT22;9834;48.076;11.878;2022-09-09T02:59:14;13.40;99.90
19397;DHT22;9834;48.076;11.878;2022-09-09T03:01:41;13.40;99.90
19397;DHT22;9834;48.076;11.878;2022-09-09T03:04:07;13.40;99.90
19397;DHT22;9834;48.076;11.878;2022-09-09T03:06:34;13.50;99.90
19397;DHT22;9834;48.076;11.878;2022-09-09T03:09:02;13.50;99.90
19397;DHT22;9834;48.076;11.878;2022-09-09T03:11:29;13.50;99.90
19397;DHT22;9834;48.076;11.878;2022-09-09T03:13:56;13.40;99.90
19397;DHT22;9834;48.076;11.878;2022-09-09T03:16:25;13.40;99.90
19397;DHT22;9834;48.076;11.878;2022-09-09T03:18:51;13.40;99.90
19397;DHT22;9834;48.076;11.878;2022-09-09T03:21:18;13.40;99.90
19397;DHT22;9834;48.076;11.878;2022-09-09T03:23:45;13.40;99.90
19397;DHT22;9834;48.076;11.878;2022-09-09T03:26:12;13.30;99.90
19397;DHT22;9834;48.076;11.878;2022-09-09T03:28:40;13.30;99.90
19397;DHT22;9834;48.076;11.878;2022-09-09T03:31:08;13.30;99.90
19397;DHT22;9834;48.076;11.878;2022-09-09T03:33:37;13.30;99.90
19397;DHT22;9834;48.076;11.878;2022-09-09T03:36:05;13.20;99.90
19397;DHT22;9834;48.076;11.878;2022-09-09T03:38:33;13.20;99.90
19397;DHT22;9834;48.076;11.878;2022-09-09T03:41:00;13.20;99.90
19397;DHT22;9834;48.076;11.878;2022-09-09T03:43:28;13.10;99.90
19397;DHT22;9834;48.076;11.878;2022-09-09T03:45:55;13.10;99.90
19397;DHT22;9834;48.076;11.878;2022-09-09T03:48:23;13.10;99.90
19397;DHT22;9834;48.076;11.878;2022-09-09T03:50:54;13.00;99.90
19397;DHT22;9834;48.076;11.878;2022-09-09T03:53:24;12.90;99.90
19397;DHT22;9834;48.076;11.878;2022-09-09T03:55:53;12.90;99.90
19397;DHT22;9834;48.076;11.878;2022-09-09T03:58:22;12.80;99.90
19397;DHT22;9834;48.076;11.878;2022-09-09T04:04:07;12.80;99.90
19397;DHT22;9834;48.076;11.878;2022-09-09T04:06:36;12.90;99.90
19397;DHT22;9834;48.076;11.878;2022-09-09T04:09:05;12.90;99.90
19397;DHT22;9834;48.076;11.878;2022-09-09T04:11:42;12.90;99.90
19397;DHT22;9834;48.076;11.878;2022-09-09T04:14:09;12.90;99.90
19397;DHT22;9834;48.076;11.878;2022-09-09T04:16:36;12.90;99.90
19397;DHT22;9834;48.076;11.878;2022-09-09T04:19:04;12.80;99.90
19397;DHT22;9834;48.076;11.878;2022-09-09T04:21:32;12.80;99.90
19397;DHT22;9834;48.076;11.878;2022-09-09T04:24:00;12.80;99.90
19397;DHT22;9834;48.076;11.878;2022-09-09T04:26:28;12.80;99.90
19397;DHT22;9834;48.076;11.878;2022-09-09T04:28:55;12.80;99.90
19397;DHT22;9834;48.076;11.878;2022-09-09T04:31:22;12.90;99.90
19397;DHT22;9834;48.076;11.878;2022-09-09T04:33:50;12.90;99.90
19397;DHT22;9834;48.076;11.878;2022-09-09T04:36:18;12.90;99.90
19397;DHT22;9834;48.076;11.878;2022-09-09T04:38:45;12.90;99.90
19397;DHT22;9834;48.076;11.878;2022-09-09T04:41:15;12.90;99.90
19397;DHT22;9834;48.076;11.878;2022-09-09T04:43:43;12.90;99.90
19397;DHT22;9834;48.076;11.878;2022-09-09T04:46:10;12.80;99.90
19397;DHT22;9834;48.076;11.878;2022-09-09T04:48:37;12.80;99.90
19397;DHT22;9834;48.076;11.878;2022-09-09T04:51:07;12.90;99.90
19397;DHT22;9834;48.076;11.878;2022-09-09T04:53:35;12.90;99.90
19397;DHT22;9834;48.076;11.878;2022-09-09T04:56:03;12.90;99.90
19397;DHT22;9834;48.076;11.878;2022-09-09T04:58:32;12.90;99.90
19397;DHT22;9834;48.076;11.878;2022-09-09T05:01:04;12.90;99.90
19397;DHT22;9834;48.076;11.878;2022-09-09T05:03:31;13.00;99.90
19397;DHT22;9834;48.076;11.878;2022-09-09T05:06:03;13.10;99.90
19397;DHT22;9834;48.076;11.878;2022-09-09T05:08:30;13.10;99.90
19397;DHT22;9834;48.076;11.878;2022-09-09T05:10:57;13.20;99.90
19397;DHT22;9834;48.076;11.878;2022-09-09T05:13:25;13.20;99.90
19397;DHT22;9834;48.076;11.878;2022-09-09T05:15:54;13.20;99.90
19397;DHT22;9834;48.076;11.878;2022-09-09T05:18:21;13.20;99.90
19397;DHT22;9834;48.076;11.878;2022-09-09T05:20:48;13.20;99.90
19397;DHT22;9834;48.076;11.878;2022-09-09T05:23:16;13.30;99.90
19397;DHT22;9834;48.076;11.878;2022-09-09T05:25:43;13.30;99.90
19397;DHT22;9834;48.076;11.878;2022-09-09T05:28:12;13.40;99.90
19397;DHT22;9834;48.076;11.878;2022-09-09T05:30:39;13.50;99.90
19397;DHT22;9834;48.076;11.878;2022-09-09T05:33:07;13.60;99.90
19397;DHT22;9834;48.076;11.878;2022-09-09T05:35:34;13.80;99.90
19397;DHT22;9834;48.076;11.878;2022-09-09T05:38:01;14.00;99.90
19397;DHT22;9834;48.076;11.878;2022-09-09T05:40:28;14.20;99.90
19397;DHT22;9834;48.076;11.878;2022-09-09T05:42:59;14.30;99.90
19397;DHT22;9834;48.076;11.878;2022-09-09T05:45:27;14.40;99.90
19397;DHT22;9834;48.076;11.878;2022-09-09T05:47:54;14.40;99.90
19397;DHT22;9834;48.076;11.878;2022-09-09T05:50:23;14.40;99.90
19397;DHT22;9834;48.076;11.878;2022-09-09T05:52:50;14.40;99.90
19397;DHT22;9834;48.076;11.878;2022-09-09T05:55:20;14.30;99.90
19397;DHT22;9834;48.076;11.878;2022-09-09T05:57:48;14.40;99.90
19397;DHT22;9834;48.076;11.878;2022-09-09T06:00:19;14.40;99.90
19397;DHT22;9834;48.076;11.878;2022-09-09T06:02:51;14.40;99.90
19397;DHT22;9834;48.076;11.878;2022-09-09T06:05:19;14.40;99.90
19397;DHT22;9834;48.076;11.878;2022-09-09T06:07:52;14.50;99.90
19397;DHT22;9834;48.076;11.878;2022-09-09T06:10:19;14.50;99.90
19397;DHT22;9834;48.076;11.878;2022-09-09T06:12:46;14.50;99.90
19397;DHT22;9834;48.076;11.878;2022-09-09T06:15:13;14.50;99.90
19397;DHT22;9834;48.076;11.878;2022-09-09T06:17:39;14.50;99.90
19397;DHT22;9834;48.076;11.878;2022-09-09T06:20:08;14.40;99.90
19397;DHT22;9834;48.076;11.878;2022-09-09T06:22:35;14.40;99.90
19397;DHT22;9834;48.076;11.878;2022-09-09T06:25:04;14.40;99.90
19397;DHT22;9834;48.076;11.878;2022-09-09T06:27:31;14.40;99.90
19397;DHT22;9834;48.076;11.878;2022-09-09T06:29:58;14.50;99.90
19397;DHT22;9834;48.076;11.878;2022-09-09T06:32:25;14.50;99.90
19397;DHT22;9834;48.076;11.878;2022-09-09T06:34:52;14.50;99.90
19397;DHT22;9834;48.076;11.878;2022-09-09T06:37:19;14.60;99.90
19397;DHT22;9834;48.076;11.878;2022-09-09T06:39:46;14.60;99.90
19397;DHT22;9834;48.076;11.878;2022-09-09T06:42:15;14.70;99.90
19397;DHT22;9834;48.076;11.878;2022-09-09T06:44:42;14.80;99.90
19397;DHT22;9834;48.076;11.878;2022-09-09T06:47:09;14.90;99.90
19397;DHT22;9834;48.076;11.878;2022-09-09T06:49:36;14.90;99.90
19397;DHT22;9834;48.076;11.878;2022-09-09T06:52:03;14.90;99.90
19397;DHT22;9834;48.076;11.878;2022-09-09T06:54:30;14.90;99.90
19397;DHT22;9834;48.076;11.878;2022-09-09T06:56:57;14.80;99.90
19397;DHT22;9834;48.076;11.878;2022-09-09T06:59:27;14.80;99.90
19397;DHT22;9834;48.076;11.878;2022-09-09T07:01:56;14.80;99.90
19397;DHT22;9834;48.076;11.878;2022-09-09T07:04:23;14.80;99.90
19397;DHT22;9834;48.076;11.878;2022-09-09T07:06:50;14.80;99.90
19397;DHT22;9834;48.076;11.878;2022-09-09T07:09:18;14.80;99.90
19397;DHT22;9834;48.076;11.878;2022-09-09T07:11:46;14.80;99.90
19397;DHT22;9834;48.076;11.878;2022-09-09T07:14:14;14.70;99.90
19397;DHT22;9834;48.076;11.878;2022-09-09T07:16:44;14.70;99.90
19397;DHT22;9834;48.076;11.878;2022-09-09T07:19:12;14.80;99.90
19397;DHT22;9834;48.076;11.878;2022-09-09T07:21:40;14.80;99.90
19397;DHT22;9834;48.076;11.878;2022-09-09T07:24:07;14.80;99.90
19397;DHT22;9834;48.076;11.878;2022-09-09T07:26:35;14.90;99.90
19397;DHT22;9834;48.076;11.878;2022-09-09T07:29:03;15.00;99.90
19397;DHT22;9834;48.076;11.878;2022-09-09T07:31:31;15.20;99.90
19397;DHT22;9834;48.076;11.878;2022-09-09T07:34:01;15.30;99.90
19397;DHT22;9834;48.076;11.878;2022-09-09T07:36:30;15.50;99.90
19397;DHT22;9834;48.076;11.878;2022-09-09T07:38:59;15.50;99.90
19397;DHT22;9834;48.076;11.878;2022-09-09T07:41:28;15.70;99.90
19397;DHT22;9834;48.076;11.878;2022-09-09T07:43:55;15.80;99.90
19397;DHT22;9834;48.076;11.878;2022-09-09T07:46:25;15.90;99.90
19397;DHT22;9834;48.076;11.878;2022-09-09T07:48:55;15.80;99.90
19397;DHT22;9834;48.076;11.878;2022-09-09T07:51:25;15.80;99.90
19397;DHT22;9834;48.076;11.878;2022-09-09T07:53:55;15.80;99.90
19397;DHT22;9834;48.076;11.878;2022-09-09T07:56:23;15.70;99.90
19397;DHT22;9834;48.076;11.878;2022-09-09T07:58:51;15.70;99.90
19397;DHT22;9834;48.076;11.878;2022-09-09T08:01:22;15.50;99.90
19397;DHT22;9834;48.076;11.878;2022-09-09T08:03:53;15.40;99.90
19397;DHT22;9834;48.076;11.878;2022-09-09T08:06:22;15.30;99.90
19397;DHT22;9834;48.076;11.878;2022-09-09T08:08:50;15.20;99.90
19397;DHT22;9834;48.076;11.878;2022-09-09T08:11:18;15.10;99.90
19397;DHT22;9834;48.076;11.878;2022-09-09T08:13:45;14.90;99.90
19397;DHT22;9834;48.076;11.878;2022-09-09T08:16:14;14.80;99.90
19397;DHT22;9834;48.076;11.878;2022-09-09T08:18:42;14.70;99.90
19397;DHT22;9834;48.076;11.878;2022-09-09T08:21:11;14.60;99.90
19397;DHT22;9834;48.076;11.878;2022-09-09T08:23:40;14.40;99.90
19397;DHT22;9834;48.076;11.878;2022-09-09T08:26:11;14.30;99.90
19397;DHT22;9834;48.076;11.878;2022-09-09T08:28:39;14.30;99.90
19397;DHT22;9834;48.076;11.878;2022-09-09T08:31:10;14.20;99.90
19397;DHT22;9834;48.076;11.878;2022-09-09T08:33:38;14.20;99.90
19397;DHT22;9834;48.076;11.878;2022-09-09T08:36:06;14.30;99.90
19397;DHT22;9834;48.076;11.878;2022-09-09T08:38:34;14.30;99.90
19397;DHT22;9834;48.076;11.878;2022-09-09T08:44:21;14.30;99.90
19397;DHT22;9834;48.076;11.878;2022-09-09T08:46:55;14.40;99.90
19397;DHT22;9834;48.076;11.878;2022-09-09T08:50:01;14.50;99.90
19397;DHT22;9834;48.076;11.878;2022-09-09T08:52:31;14.50;99.90
19397;DHT22;9834;48.076;11.878;2022-09-09T08:55:13;14.60;99.90
19397;DHT22;9834;48.076;11.878;2022-09-09T08:57:45;14.70;99.90
19397;DHT22;9834;48.076;11.878;2022-09-09T09:00:14;14.80;99.90
19397;DHT22;9834;48.076;11.878;2022-09-09T09:02:46;14.70;99.90
19397;DHT22;9834;48.076;11.878;2022-09-09T09:05:20;14.70;99.90
19397;DHT22;9834;48.076;11.878;2022-09-09T09:07:59;14.80;99.90
19397;DHT22;9834;48.076;11.878;2022-09-09T09:10:39;14.90;99.90
19397;DHT22;9834;48.076;11.878;2022-09-09T09:13:13;15.00;99.90
19397;DHT22;9834;48.076;11.878;2022-09-09T09:15:44;14.90;99.90
19397;DHT22;9834;48.076;11.878;2022-09-09T09:18:13;14.90;99.90
19397;DHT22;9834;48.076;11.878;2022-09-09T09:20:47;14.80;99.90
19397;DHT22;9834;48.076;11.878;2022-09-09T09:23:22;14.80;99.90
19397;DHT22;9834;48.076;11.878;2022-09-09T09:25:51;14.90;99.90
19397;DHT22;9834;48.076;11.878;2022-09-09T09:28:23;14.90;99.90
19397;DHT22;9834;48.076;11.878;2022-09-09T09:30:54;15.00;99.90
19397;DHT22;9834;48.076;11.878;2022-09-09T09:33:27;15.10;99.90
19397;DHT22;9834;48.076;11.878;2022-09-09T09:35:58;15.20;99.90
19397;DHT22;9834;48.076;11.878;2022-09-09T09:38:27;15.50;99.90
19397;DHT22;9834;48.076;11.878;2022-09-09T09:40:55;15.50;99.90
19397;DHT22;9834;48.076;11.878;2022-09-09T09:43:26;15.50;99.90
19397;DHT22;9834;48.076;11.878;2022-09-09T09:45:55;15.50;99.90
19397;DHT22;9834;48.076;11.878;2022-09-09T09:48:24;15.40;99.90
19397;DHT22;9834;48.076;11.878;2022-09-09T09:50:53;15.20;99.90
19397;DHT22;9834;48.076;11.878;2022-09-09T09:53:23;15.10;99.90
19397;DHT22;9834;48.076;11.878;2022-09-09T09:55:55;15.10;99.90
19397;DHT22;9834;48.076;11.878;2022-09-09T09:58:25;15.10;99.90
19397;DHT22;9834;48.076;11.878;2022-09-09T10:00:54;15.20;99.90
19397;DHT22;9834;48.076;11.878;2022-09-09T10:03:24;15.30;99.90
19397;DHT22;9834;48.076;11.878;2022-09-09T10:05:52;15.50;99.90
19397;DHT22;9834;48.076;11.878;2022-09-09T10:08:20;15.70;99.90
19397;DHT22;9834;48.076;11.878;2022-09-09T10:10:55;15.80;99.90
19397;DHT22;9834;48.076;11.878;2022-09-09T10:13:29;15.80;99.90
19397;DHT22;9834;48.076;11.878;2022-09-09T10:16:11;16.00;99.90
19397;DHT22;9834;48.076;11.878;2022-09-09T10:18:47;16.30;99.90
19397;DHT22;9834;48.076;11.878;2022-09-09T10:21:31;16.60;99.90
19397;DHT22;9834;48.076;11.878;2022-09-09T10:24:18;16.90;99.90
19397;DHT22;9834;48.076;11.878;2022-09-09T10:26:55;16.90;99.90
19397;DHT22;9834;48.076;11.878;2022-09-09T10:29:52;16.90;99.90
19397;DHT22;9834;48.076;11.878;2022-09-09T10:32:36;16.90;99.90
19397;DHT22;9834;48.076;11.878;2022-09-09T10:35:09;17.00;99.90
19397;DHT22;9834;48.076;11.878;2022-09-09T10:37:44;16.90;99.90
19397;DHT22;9834;48.076;11.878;2022-09-09T10:40:26;17.10;99.90
19397;DHT22;9834;48.076;11.878;2022-09-09T10:43:01;17.20;99.90
19397;DHT22;9834;48.076;11.878;2022-09-09T10:45:37;17.20;99.90
19397;DHT22;9834;48.076;11.878;2022-09-09T10:48:30;17.10;99.90
19397;DHT22;9834;48.076;11.878;2022-09-09T10:51:10;16.90;99.90
19397;DHT22;9834;48.076;11.878;2022-09-09T10:53:47;16.50;99.90
19397;DHT22;9834;48.076;11.878;2022-09-09T10:56:18;16.40;99.90
19397;DHT22;9834;48.076;11.878;2022-09-09T10:58:49;16.20;99.90
19397;DHT22;9834;48.076;11.878;2022-09-09T11:01:21;16.10;99.90
19397;DHT22;9834;48.076;11.878;2022-09-09T11:03:54;16.00;99.90
19397;DHT22;9834;48.076;11.878;2022-09-09T11:06:30;16.00;99.90
19397;DHT22;9834;48.076;11.878;2022-09-09T11:08:59;16.00;99.90
19397;DHT22;9834;48.076;11.878;2022-09-09T11:11:32;16.10;99.90
19397;DHT22;9834;48.076;11.878;2022-09-09T11:14:05;16.10;99.90
19397;DHT22;9834;48.076;11.878;2022-09-09T11:16:40;16.10;99.90
19397;DHT22;9834;48.076;11.878;2022-09-09T11:19:14;16.10;99.90
19397;DHT22;9834;48.076;11.878;2022-09-09T11:21:45;16.00;99.90
19397;DHT22;9834;48.076;11.878;2022-09-09T11:24:18;16.00;99.90
19397;DHT22;9834;48.076;11.878;2022-09-09T11:26:51;16.00;99.90
19397;DHT22;9834;48.076;11.878;2022-09-09T11:33:05;16.70;99.90
19397;DHT22;9834;48.076;11.878;2022-09-09T11:35:47;16.80;99.90
19397;DHT22;9834;48.076;11.878;2022-09-09T11:38:25;17.20;99.90
19397;DHT22;9834;48.076;11.878;2022-09-09T11:40:58;17.30;99.90
19397;DHT22;9834;48.076;11.878;2022-09-09T11:43:30;17.40;99.90
19397;DHT22;9834;48.076;11.878;2022-09-09T11:46:00;17.60;99.90
19397;DHT22;9834;48.076;11.878;2022-09-09T11:48:35;17.60;99.90
19397;DHT22;9834;48.076;11.878;2022-09-09T11:51:07;17.60;99.90
19397;DHT22;9834;48.076;11.878;2022-09-09T11:53:35;17.50;99.90
19397;DHT22;9834;48.076;11.878;2022-09-09T11:56:12;17.50;99.90
19397;DHT22;9834;48.076;11.878;2022-09-09T11:58:43;17.60;99.90
19397;DHT22;9834;48.076;11.878;2022-09-09T12:01:15;17.80;99.90
19397;DHT22;9834;48.076;11.878;2022-09-09T12:03:45;18.10;99.90
19397;DHT22;9834;48.076;11.878;2022-09-09T12:06:18;18.30;99.90
19397;DHT22;9834;48.076;11.878;2022-09-09T12:08:50;18.70;99.90
19397;DHT22;9834;48.076;11.878;2022-09-09T12:11:28;18.80;99.90
19397;DHT22;9834;48.076;11.878;2022-09-09T12:13:58;18.80;99.90
19397;DHT22;9834;48.076;11.878;2022-09-09T12:16:32;19.00;99.90
19397;DHT22;9834;48.076;11.878;2022-09-09T12:19:14;19.40;99.90
19397;DHT22;9834;48.076;11.878;2022-09-09T12:21:48;19.60;99.90
19397;DHT22;9834;48.076;11.878;2022-09-09T12:24:22;19.80;99.90
19397;DHT22;9834;48.076;11.878;2022-09-09T12:26:58;20.00;99.90
19397;DHT22;9834;48.076;11.878;2022-09-09T12:29:32;20.20;99.90
19397;DHT22;9834;48.076;11.878;2022-09-09T12:32:07;20.50;99.90
19397;DHT22;9834;48.076;11.878;2022-09-09T12:34:41;20.80;99.90
19397;DHT22;9834;48.076;11.878;2022-09-09T12:37:17;20.80;99.90
19397;DHT22;9834;48.076;11.878;2022-09-09T12:39:50;20.70;99.90
19397;DHT22;9834;48.076;11.878;2022-09-09T12:42:23;20.80;99.90
19397;DHT22;9834;48.076;11.878;2022-09-09T12:44:51;20.70;99.90
19397;DHT22;9834;48.076;11.878;2022-09-09T12:47:21;20.50;99.90
19397;DHT22;9834;48.076;11.878;2022-09-09T12:49:49;20.40;99.90
19397;DHT22;9834;48.076;11.878;2022-09-09T12:52:23;20.40;99.90
19397;DHT22;9834;48.076;11.878;2022-09-09T12:54:52;20.30;99.90
19397;DHT22;9834;48.076;11.878;2022-09-09T12:57:20;20.30;99.90
19397;DHT22;9834;48.076;11.878;2022-09-09T12:59:50;20.30;99.90
19397;DHT22;9834;48.076;11.878;2022-09-09T13:02:24;20.40;99.90
19397;DHT22;9834;48.076;11.878;2022-09-09T13:04:52;20.50;99.90
19397;DHT22;9834;48.076;11.878;2022-09-09T13:07:22;20.60;99.90
19397;DHT22;9834;48.076;11.878;2022-09-09T13:09:50;21.00;99.90
19397;DHT22;9834;48.076;11.878;2022-09-09T13:12:19;21.80;99.90
19397;DHT22;9834;48.076;11.878;2022-09-09T13:14:50;22.20;97.40
19397;DHT22;9834;48.076;11.878;2022-09-09T13:17:21;22.30;96.40
19397;DHT22;9834;48.076;11.878;2022-09-09T13:19:49;22.30;96.20
19397;DHT22;9834;48.076;11.878;2022-09-09T13:22:27;22.10;95.70
19397;DHT22;9834;48.076;11.878;2022-09-09T13:25:00;21.80;98.20
19397;DHT22;9834;48.076;11.878;2022-09-09T13:27:31;21.50;95.30
19397;DHT22;9834;48.076;11.878;2022-09-09T13:29:59;21.20;95.50
19397;DHT22;9834;48.076;11.878;2022-09-09T13:32:27;20.90;97.10
19397;DHT22;9834;48.076;11.878;2022-09-09T13:34:56;20.80;98.70
19397;DHT22;9834;48.076;11.878;2022-09-09T13:37:30;20.80;98.70
19397;DHT22;9834;48.076;11.878;2022-09-09T13:39:58;20.70;99.00
19397;DHT22;9834;48.076;11.878;2022-09-09T13:42:26;20.60;99.90
19397;DHT22;9834;48.076;11.878;2022-09-09T13:44:55;20.40;99.50
19397;DHT22;9834;48.076;11.878;2022-09-09T13:47:28;20.10;99.90
19397;DHT22;9834;48.076;11.878;2022-09-09T13:49:56;19.90;99.90
19397;DHT22;9834;48.076;11.878;2022-09-09T13:52:27;19.70;99.90
19397;DHT22;9834;48.076;11.878;2022-09-09T13:54:56;19.50;99.90
19397;DHT22;9834;48.076;11.878;2022-09-09T13:57:25;19.20;99.90
19397;DHT22;9834;48.076;11.878;2022-09-09T13:59:53;19.10;99.90
19397;DHT22;9834;48.076;11.878;2022-09-09T14:02:21;19.00;99.90
19397;DHT22;9834;48.076;11.878;2022-09-09T14:04:49;18.80;99.90
19397;DHT22;9834;48.076;11.878;2022-09-09T14:07:20;18.80;99.90
19397;DHT22;9834;48.076;11.878;2022-09-09T14:09:49;18.70;99.90
19397;DHT22;9834;48.076;11.878;2022-09-09T14:12:17;18.70;99.90
19397;DHT22;9834;48.076;11.878;2022-09-09T14:14:44;18.90;99.90
19397;DHT22;9834;48.076;11.878;2022-09-09T14:17:11;19.10;99.90
19397;DHT22;9834;48.076;11.878;2022-09-09T14:19:39;19.00;99.90
19397;DHT22;9834;48.076;11.878;2022-09-09T14:22:06;19.00;99.90
19397;DHT22;9834;48.076;11.878;2022-09-09T14:24:33;19.00;99.90
19397;DHT22;9834;48.076;11.878;2022-09-09T14:27:01;18.90;99.90
19397;DHT22;9834;48.076;11.878;2022-09-09T14:29:28;18.90;99.90
19397;DHT22;9834;48.076;11.878;2022-09-09T14:31:55;19.10;99.90
19397;DHT22;9834;48.076;11.878;2022-09-09T14:34:22;19.00;99.90
19397;DHT22;9834;48.076;11.878;2022-09-09T14:36:49;18.90;99.90
19397;DHT22;9834;48.076;11.878;2022-09-09T14:39:16;18.80;99.90
19397;DHT22;9834;48.076;11.878;2022-09-09T14:41:43;18.70;99.90
19397;DHT22;9834;48.076;11.878;2022-09-09T14:44:12;18.70;99.90
19397;DHT22;9834;48.076;11.878;2022-09-09T14:46:39;18.50;99.90
19397;DHT22;9834;48.076;11.878;2022-09-09T14:49:08;18.50;99.90
19397;DHT22;9834;48.076;11.878;2022-09-09T14:51:36;18.40;99.90
19397;DHT22;9834;48.076;11.878;2022-09-09T14:54:03;18.40;99.90
19397;DHT22;9834;48.076;11.878;2022-09-09T14:56:32;18.40;99.90
19397;DHT22;9834;48.076;11.878;2022-09-09T14:59:00;18.50;99.90
19397;DHT22;9834;48.076;11.878;2022-09-09T15:01:30;18.70;99.90
19397;DHT22;9834;48.076;11.878;2022-09-09T15:03:58;18.80;99.90
19397;DHT22;9834;48.076;11.878;2022-09-09T15:06:27;18.80;99.90
19397;DHT22;9834;48.076;11.878;2022-09-09T15:08:55;18.90;99.90
19397;DHT22;9834;48.076;11.878;2022-09-09T15:11:23;18.80;99.90
19397;DHT22;9834;48.076;11.878;2022-09-09T15:13:53;18.60;99.90
19397;DHT22;9834;48.076;11.878;2022-09-09T15:16:22;18.50;99.90
19397;DHT22;9834;48.076;11.878;2022-09-09T15:18:53;18.50;99.90
19397;DHT22;9834;48.076;11.878;2022-09-09T15:21:22;18.40;99.90
19397;DHT22;9834;48.076;11.878;2022-09-09T15:23:50;18.50;99.90
19397;DHT22;9834;48.076;11.878;2022-09-09T15:26:17;18.40;99.90
19397;DHT22;9834;48.076;11.878;2022-09-09T15:28:45;18.40;99.90
19397;DHT22;9834;48.076;11.878;2022-09-09T15:31:14;18.40;99.90
19397;DHT22;9834;48.076;11.878;2022-09-09T15:33:46;18.30;99.90
19397;DHT22;9834;48.076;11.878;2022-09-09T15:36:17;18.20;99.90
19397;DHT22;9834;48.076;11.878;2022-09-09T15:38:45;18.10;99.90
19397;DHT22;9834;48.076;11.878;2022-09-09T15:41:12;18.00;99.90
19397;DHT22;9834;48.076;11.878;2022-09-09T15:43:43;17.90;99.90
19397;DHT22;9834;48.076;11.878;2022-09-09T15:46:23;17.90;99.90
19397;DHT22;9834;48.076;11.878;2022-09-09T15:48:53;17.90;99.90
19397;DHT22;9834;48.076;11.878;2022-09-09T15:51:22;18.00;99.90
19397;DHT22;9834;48.076;11.878;2022-09-09T15:53:54;17.90;99.90
19397;DHT22;9834;48.076;11.878;2022-09-09T15:56:22;17.80;99.90
19397;DHT22;9834;48.076;11.878;2022-09-09T15:58:49;17.60;99.90
19397;DHT22;9834;48.076;11.878;2022-09-09T16:01:26;17.50;99.90
19397;DHT22;9834;48.076;11.878;2022-09-09T16:03:54;17.30;99.90